sensor_id;sensor_type;location;lat;lon;timestamp;pressure;altitude;pressure_sealevel;temperature;humidity
5609;BME280;2826;51.354;9.588;2023-05-01T00:01:45;98441.22;;;9.48;52.30
5609;BME280;2826;51.354;9.588;2023-05-01T00:04:13;98433.66;;;9.42;52.23
5609;BME280;2826;51.354;9.588;2023-05-01T00:06:39;98439.00;;;9.37;52.48
5609;BME280;2826;51.354;9.588;2023-05-01T00:09:06;98425.25;;;9.35;52.46
5609;BME280;2826;51.354;9.588;2023-05-01T00:11:33;98430.50;;;9.32;52.67
5609;BME280;2826;51.354;9.588;2023-05-01T00:14:01;98430.59;;;9.31;52.89
5609;BME280;2826;51.354;9.588;2023-05-01T00:16:28;98428.16;;;9.24;53.41
5609;BME280;2826;51.354;9.588;2023-05-01T00:18:54;98427.44;;;9.19;53.70
5609;BME280;2826;51.354;9.588;2023-05-01T00:21:22;98420.56;;;9.20;53.67
5609;BME280;2826;51.354;9.588;2023-05-01T00:23:49;98413.69;;;9.17;53.69
5609;BME280;2826;51.354;9.588;2023-05-01T00:26:16;98413.78;;;9.15;53.69
5609;BME280;2826;51.354;9.588;2023-05-01T00:28:46;98415.53;;;9.13;53.57
5609;BME280;2826;51.354;9.588;2023-05-01T00:31:12;98410.38;;;9.13;53.52
5609;BME280;2826;51.354;9.588;2023-05-01T00:33:39;98406.09;;;9.12;53.39
5609;BME280;2826;51.354;9.588;2023-05-01T00:36:06;98405.28;;;9.10;53.05
5609;BME280;2826;51.354;9.588;2023-05-01T00:38:34;98401.13;;;9.06;53.20
5609;BME280;2826;51.354;9.588;2023-05-01T00:41:01;98398.56;;;9.05;53.01
5609;BME280;2826;51.354;9.588;2023-05-01T00:43:27;98392.50;;;9.06;53.23
5609;BME280;2826;51.354;9.588;2023-05-01T00:45:55;98388.25;;;9.03;53.39
5609;BME280;2826;51.354;9.588;2023-05-01T00:48:22;98392.56;;;9.02;53.77
5609;BME280;2826;51.354;9.588;2023-05-01T00:50:48;98390.88;;;9.01;53.69
5609;BME280;2826;51.354;9.588;2023-05-01T00:53:16;98384.00;;;9.02;53.69
5609;BME280;2826;51.354;9.588;2023-05-01T00:55:44;98384.84;;;9.01;53.51
5609;BME280;2826;51.354;9.588;2023-05-01T00:58:12;98375.41;;;9.00;53.58
5609;BME280;2826;51.354;9.588;2023-05-01T01:00:39;98377.22;;;8.98;53.88
5609;BME280;2826;51.354;9.588;2023-05-01T01:03:05;98376.41;;;8.96;53.74
5609;BME280;2826;51.354;9.588;2023-05-01T01:05:39;98367.84;;;8.94;54.21
5609;BME280;2826;51.354;9.588;2023-05-01T01:08:12;98363.66;;;8.89;54.39
5609;BME280;2826;51.354;9.588;2023-05-01T01:10:49;98361.16;;;8.86;54.43
5609;BME280;2826;51.354;9.588;2023-05-01T01:13:19;98357.81;;;8.83;54.49
5609;BME280;2826;51.354;9.588;2023-05-01T01:15:54;98365.66;;;8.80;54.71
5609;BME280;2826;51.354;9.588;2023-05-01T01:18:28;98353.66;;;8.77;54.57
5609;BME280;2826;51.354;9.588;2023-05-01T01:21:05;98345.22;;;8.72;54.88
5609;BME280;2826;51.354;9.588;2023-05-01T01:23:45;98351.16;;;8.74;54.85
5609;BME280;2826;51.354;9.588;2023-05-01T01:26:32;98340.81;;;8.74;54.90
5609;BME280;2826;51.354;9.588;2023-05-01T01:29:24;98342.47;;;8.76;54.80
5609;BME280;2826;51.354;9.588;2023-05-01T01:32:03;98338.13;;;8.79;54.53
5609;BME280;2826;51.354;9.588;2023-05-01T01:34:39;98331.22;;;8.79;54.22
5609;BME280;2826;51.354;9.588;2023-05-01T01:37:11;98322.66;;;8.77;54.05
5609;BME280;2826;51.354;9.588;2023-05-01T01:43:31;98324.31;;;8.78;54.27
5609;BME280;2826;51.354;9.588;2023-05-01T01:46:04;98325.22;;;8.77;54.32
5609;BME280;2826;51.354;9.588;2023-05-01T01:48:35;98318.41;;;8.74;54.72
5609;BME280;2826;51.354;9.588;2023-05-01T01:51:07;98319.41;;;8.70;54.89
5609;BME280;2826;51.354;9.588;2023-05-01T01:53:38;98309.19;;;8.66;54.74
5609;BME280;2826;51.354;9.588;2023-05-01T01:56:06;98308.38;;;8.63;54.46
5609;BME280;2826;51.354;9.588;2023-05-01T01:58:35;98311.88;;;8.62;54.54
5609;BME280;2826;51.354;9.588;2023-05-01T02:01:03;98314.34;;;8.66;54.52
5609;BME280;2826;51.354;9.588;2023-05-01T02:03:32;98304.88;;;8.66;54.13
5609;BME280;2826;51.354;9.588;2023-05-01T02:05:59;98296.22;;;8.67;54.27
5609;BME280;2826;51.354;9.588;2023-05-01T02:08:29;98298.78;;;8.67;54.38
5609;BME280;2826;51.354;9.588;2023-05-01T02:10:57;98294.47;;;8.68;54.23
5609;BME280;2826;51.354;9.588;2023-05-01T02:13:26;98274.16;;;8.55;54.19
5609;BME280;2826;51.354;9.588;2023-05-01T02:15:55;98288.47;;;8.67;54.17
5609;BME280;2826;51.354;9.588;2023-05-01T02:18:24;98291.03;;;8.67;54.38
5609;BME280;2826;51.354;9.588;2023-05-01T02:20:52;98277.41;;;8.62;54.90
5609;BME280;2826;51.354;9.588;2023-05-01T02:23:18;98277.69;;;8.51;55.43
5609;BME280;2826;51.354;9.588;2023-05-01T02:25:47;98278.06;;;8.39;56.22
5609;BME280;2826;51.354;9.588;2023-05-01T02:28:19;98274.22;;;8.22;57.20
5609;BME280;2826;51.354;9.588;2023-05-01T02:30:46;98269.25;;;8.14;57.91
5609;BME280;2826;51.354;9.588;2023-05-01T02:33:13;98265.22;;;8.05;58.80
5609;BME280;2826;51.354;9.588;2023-05-01T02:35:40;98262.75;;;8.01;59.60
5609;BME280;2826;51.354;9.588;2023-05-01T02:38:09;98262.66;;;8.04;59.44
5609;BME280;2826;51.354;9.588;2023-05-01T02:40:38;98259.13;;;8.08;59.46
5609;BME280;2826;51.354;9.588;2023-05-01T02:43:08;98248.78;;;8.08;59.21
5609;BME280;2826;51.354;9.588;2023-05-01T02:45:37;98246.19;;;8.08;59.53
5609;BME280;2826;51.354;9.588;2023-05-01T02:48:09;98249.66;;;8.08;59.16
5609;BME280;2826;51.354;9.588;2023-05-01T02:50:36;98246.09;;;8.13;59.03
5609;BME280;2826;51.354;9.588;2023-05-01T02:53:05;98241.75;;;8.13;59.02
5609;BME280;2826;51.354;9.588;2023-05-01T02:55:41;98233.22;;;8.11;59.24
5609;BME280;2826;51.354;9.588;2023-05-01T02:58:14;98238.38;;;8.11;59.36
5609;BME280;2826;51.354;9.588;2023-05-01T03:00:41;98230.84;;;8.03;59.75
5609;BME280;2826;51.354;9.588;2023-05-01T03:03:27;98234.41;;;7.99;59.92
5609;BME280;2826;51.354;9.588;2023-05-01T03:05:54;98230.06;;;8.00;59.99
5609;BME280;2826;51.354;9.588;2023-05-01T03:08:22;98229.28;;;7.97;60.01
5609;BME280;2826;51.354;9.588;2023-05-01T03:10:49;98227.44;;;8.01;60.06
5609;BME280;2826;51.354;9.588;2023-05-01T03:13:17;98227.50;;;8.00;60.03
5609;BME280;2826;51.354;9.588;2023-05-01T03:15:44;98227.50;;;8.00;59.83
5609;BME280;2826;51.354;9.588;2023-05-01T03:18:10;98217.31;;;7.95;59.97
5609;BME280;2826;51.354;9.588;2023-05-01T03:20:38;98224.22;;;7.93;60.46
5609;BME280;2826;51.354;9.588;2023-05-01T03:23:05;98221.66;;;7.93;60.54
5609;BME280;2826;51.354;9.588;2023-05-01T03:25:32;98218.28;;;7.91;61.29
5609;BME280;2826;51.354;9.588;2023-05-01T03:27:58;98214.84;;;7.90;60.95
5609;BME280;2826;51.354;9.588;2023-05-01T03:30:26;98213.16;;;7.89;61.07
5609;BME280;2826;51.354;9.588;2023-05-01T03:32:53;98213.13;;;7.91;61.43
5609;BME280;2826;51.354;9.588;2023-05-01T03:35:26;98213.13;;;7.91;61.33
5609;BME280;2826;51.354;9.588;2023-05-01T03:37:54;98203.56;;;7.93;61.11
5609;BME280;2826;51.354;9.588;2023-05-01T03:40:39;98206.97;;;7.95;61.26
5609;BME280;2826;51.354;9.588;2023-05-01T03:43:32;98206.03;;;7.97;61.05
5609;BME280;2826;51.354;9.588;2023-05-01T03:46:05;98207.69;;;8.00;61.12
5609;BME280;2826;51.354;9.588;2023-05-01T03:48:32;98203.28;;;8.04;61.00
5609;BME280;2826;51.354;9.588;2023-05-01T03:50:58;98205.81;;;8.05;60.86
5609;BME280;2826;51.354;9.588;2023-05-01T03:53:26;98209.25;;;8.06;61.60
5609;BME280;2826;51.354;9.588;2023-05-01T03:55:52;98205.81;;;8.05;61.23
5609;BME280;2826;51.354;9.588;2023-05-01T03:58:20;98205.06;;;8.02;61.40
5609;BME280;2826;51.354;9.588;2023-05-01T04:00:47;98204.28;;;7.98;62.06
5609;BME280;2826;51.354;9.588;2023-05-01T04:03:16;98205.16;;;7.98;62.29
5609;BME280;2826;51.354;9.588;2023-05-01T04:05:45;98208.59;;;7.99;62.29
5609;BME280;2826;51.354;9.588;2023-05-01T04:08:12;98200.84;;;7.99;62.18
5609;BME280;2826;51.354;9.588;2023-05-01T04:10:39;98201.66;;;8.00;62.27
5609;BME280;2826;51.354;9.588;2023-05-01T04:13:06;98195.59;;;8.01;62.08
5609;BME280;2826;51.354;9.588;2023-05-01T04:15:33;98194.78;;;8.00;62.10
5609;BME280;2826;51.354;9.588;2023-05-01T04:18:00;98187.94;;;7.99;62.23
5609;BME280;2826;51.354;9.588;2023-05-01T04:20:28;98195.56;;;8.02;62.35
5609;BME280;2826;51.354;9.588;2023-05-01T04:22:55;98199.00;;;8.03;62.28
5609;BME280;2826;51.354;9.588;2023-05-01T04:25:22;98197.28;;;8.03;62.62
5609;BME280;2826;51.354;9.588;2023-05-01T04:27:52;98194.59;;;8.06;62.50
5609;BME280;2826;51.354;9.588;2023-05-01T04:30:18;98186.81;;;8.08;62.10
5609;BME280;2826;51.354;9.588;2023-05-01T04:32:45;98187.47;;;8.15;61.75
5609;BME280;2826;51.354;9.588;2023-05-01T04:35:12;98192.44;;;8.21;61.43
5609;BME280;2826;51.354;9.588;2023-05-01T04:37:43;98190.59;;;8.26;61.23
5609;BME280;2826;51.354;9.588;2023-05-01T04:40:11;98183.53;;;8.31;61.45
5609;BME280;2826;51.354;9.588;2023-05-01T04:42:39;98188.47;;;8.39;61.08
5609;BME280;2826;51.354;9.588;2023-05-01T04:45:10;98190.94;;;8.44;61.03
5609;BME280;2826;51.354;9.588;2023-05-01T04:47:37;98189.81;;;8.51;60.79
5609;BME280;2826;51.354;9.588;2023-05-01T04:50:04;98191.38;;;8.58;60.61
5609;BME280;2826;51.354;9.588;2023-05-01T04:52:31;98186.84;;;8.65;60.48
5609;BME280;2826;51.354;9.588;2023-05-01T04:55:01;98187.34;;;8.76;60.26
5609;BME280;2826;51.354;9.588;2023-05-01T04:57:32;98185.31;;;8.86;60.18
5609;BME280;2826;51.354;9.588;2023-05-01T05:00:01;98178.19;;;8.93;60.32
5609;BME280;2826;51.354;9.588;2023-05-01T05:02:31;98183.28;;;8.96;60.44
5609;BME280;2826;51.354;9.588;2023-05-01T05:04:57;98178.88;;;8.98;61.30
5609;BME280;2826;51.354;9.588;2023-05-01T05:07:24;98191.59;;;9.06;60.92
5609;BME280;2826;51.354;9.588;2023-05-01T05:10:24;98189.47;;;9.18;61.23
5609;BME280;2826;51.354;9.588;2023-05-01T05:13:06;98187.34;;;9.31;60.97
5609;BME280;2826;51.354;9.588;2023-05-01T05:15:35;98183.47;;;9.43;60.83
5609;BME280;2826;51.354;9.588;2023-05-01T05:18:02;98183.03;;;9.55;60.64
5609;BME280;2826;51.354;9.588;2023-05-01T05:20:30;98187.75;;;9.67;60.60
5609;BME280;2826;51.354;9.588;2023-05-01T05:22:57;98182.09;;;9.82;60.28
5609;BME280;2826;51.354;9.588;2023-05-01T05:25:25;98186.03;;;9.92;60.11
5609;BME280;2826;51.354;9.588;2023-05-01T05:27:52;98179.69;;;10.01;59.78
5609;BME280;2826;51.354;9.588;2023-05-01T05:30:18;98180.06;;;10.14;59.38
5609;BME280;2826;51.354;9.588;2023-05-01T05:32:46;98181.94;;;10.32;58.96
5609;BME280;2826;51.354;9.588;2023-05-01T05:35:13;98178.81;;;10.48;57.48
5609;BME280;2826;51.354;9.588;2023-05-01T05:37:40;98171.25;;;10.64;56.97
5609;BME280;2826;51.354;9.588;2023-05-01T05:40:08;98177.97;;;10.70;57.63
5609;BME280;2826;51.354;9.588;2023-05-01T05:42:45;98174.34;;;10.74;58.37
5609;BME280;2826;51.354;9.588;2023-05-01T05:45:12;98178.00;;;10.68;59.17
5609;BME280;2826;51.354;9.588;2023-05-01T05:47:38;98182.53;;;10.63;58.96
5609;BME280;2826;51.354;9.588;2023-05-01T05:50:06;98179.34;;;10.56;58.05
5609;BME280;2826;51.354;9.588;2023-05-01T05:52:34;98174.28;;;10.53;56.53
5609;BME280;2826;51.354;9.588;2023-05-01T05:55:02;98172.28;;;10.60;56.66
5609;BME280;2826;51.354;9.588;2023-05-01T05:57:29;98167.63;;;10.68;55.05
5609;BME280;2826;51.354;9.588;2023-05-01T05:59:57;98171.78;;;10.73;55.35
5609;BME280;2826;51.354;9.588;2023-05-01T06:02:26;98174.94;;;10.81;55.44
5609;BME280;2826;51.354;9.588;2023-05-01T06:04:52;98165.75;;;10.94;55.77
5609;BME280;2826;51.354;9.588;2023-05-01T06:07:20;98169.06;;;11.19;55.74
5609;BME280;2826;51.354;9.588;2023-05-01T06:09:47;98168.34;;;11.36;54.75
5609;BME280;2826;51.354;9.588;2023-05-01T06:12:14;98157.03;;;11.58;54.39
5609;BME280;2826;51.354;9.588;2023-05-01T06:14:40;98163.00;;;11.79;53.21
5609;BME280;2826;51.354;9.588;2023-05-01T06:17:08;98160.56;;;11.95;51.49
5609;BME280;2826;51.354;9.588;2023-05-01T06:19:36;98163.63;;;12.05;50.08
5609;BME280;2826;51.354;9.588;2023-05-01T06:22:07;98158.84;;;12.15;49.42
5609;BME280;2826;51.354;9.588;2023-05-01T06:24:40;98164.09;;;12.33;49.40
5609;BME280;2826;51.354;9.588;2023-05-01T06:27:08;98158.78;;;12.53;49.58
5609;BME280;2826;51.354;9.588;2023-05-01T06:29:36;98159.81;;;12.68;47.79
5609;BME280;2826;51.354;9.588;2023-05-01T06:32:03;98155.06;;;12.77;48.11
5609;BME280;2826;51.354;9.588;2023-05-01T06:34:32;98145.28;;;12.82;48.12
5609;BME280;2826;51.354;9.588;2023-05-01T06:36:58;98144.59;;;12.96;47.70
5609;BME280;2826;51.354;9.588;2023-05-01T06:39:25;98142.28;;;12.90;46.55
5609;BME280;2826;51.354;9.588;2023-05-01T06:41:52;98142.00;;;12.96;46.90
5609;BME280;2826;51.354;9.588;2023-05-01T06:44:28;98150.56;;;12.98;47.84
5609;BME280;2826;51.354;9.588;2023-05-01T06:46:55;98150.69;;;13.13;47.27
5609;BME280;2826;51.354;9.588;2023-05-01T06:49:22;98123.91;;;13.11;46.79
5609;BME280;2826;51.354;9.588;2023-05-01T06:51:50;98153.41;;;13.29;46.13
5609;BME280;2826;51.354;9.588;2023-05-01T06:54:17;98140.13;;;13.33;46.06
5609;BME280;2826;51.354;9.588;2023-05-01T06:56:44;98141.97;;;13.49;46.75
5609;BME280;2826;51.354;9.588;2023-05-01T06:59:10;98148.53;;;13.56;46.97
5609;BME280;2826;51.354;9.588;2023-05-01T07:01:37;98138.88;;;13.58;47.39
5609;BME280;2826;51.354;9.588;2023-05-01T07:04:03;98133.84;;;13.71;47.25
5609;BME280;2826;51.354;9.588;2023-05-01T07:06:30;98140.00;;;13.87;46.92
5609;BME280;2826;51.354;9.588;2023-05-01T07:08:58;98141.03;;;14.00;47.12
5609;BME280;2826;51.354;9.588;2023-05-01T07:11:25;98140.44;;;13.95;47.99
5609;BME280;2826;51.354;9.588;2023-05-01T07:13:53;98140.53;;;14.09;47.39
5609;BME280;2826;51.354;9.588;2023-05-01T07:16:19;98144.16;;;14.23;46.66
5609;BME280;2826;51.354;9.588;2023-05-01T07:18:46;98130.44;;;14.35;47.16
5609;BME280;2826;51.354;9.588;2023-05-01T07:21:13;98137.47;;;14.49;47.66
5609;BME280;2826;51.354;9.588;2023-05-01T07:23:40;98137.22;;;14.54;47.59
5609;BME280;2826;51.354;9.588;2023-05-01T07:26:07;98135.94;;;14.61;48.19
5609;BME280;2826;51.354;9.588;2023-05-01T07:28:34;98134.06;;;14.80;48.11
5609;BME280;2826;51.354;9.588;2023-05-01T07:31:01;98134.38;;;14.89;48.43
5609;BME280;2826;51.354;9.588;2023-05-01T07:33:27;98134.75;;;14.83;48.21
5609;BME280;2826;51.354;9.588;2023-05-01T07:35:54;98128.59;;;14.84;47.36
5609;BME280;2826;51.354;9.588;2023-05-01T07:38:20;98125.22;;;14.82;47.12
5609;BME280;2826;51.354;9.588;2023-05-01T07:40:47;98120.00;;;14.82;45.81
5609;BME280;2826;51.354;9.588;2023-05-01T07:43:15;98123.00;;;14.91;46.41
5609;BME280;2826;51.354;9.588;2023-05-01T07:45:53;98108.38;;;14.88;46.40
5609;BME280;2826;51.354;9.588;2023-05-01T07:48:20;98122.69;;;15.11;46.78
5609;BME280;2826;51.354;9.588;2023-05-01T07:50:46;98111.88;;;15.32;46.51
5609;BME280;2826;51.354;9.588;2023-05-01T07:53:13;98112.06;;;15.44;46.30
5609;BME280;2826;51.354;9.588;2023-05-01T07:55:39;98107.78;;;15.57;46.30
5609;BME280;2826;51.354;9.588;2023-05-01T07:58:07;98105.91;;;15.74;45.89
5609;BME280;2826;51.354;9.588;2023-05-01T08:00:35;98097.56;;;15.81;46.05
5609;BME280;2826;51.354;9.588;2023-05-01T08:03:02;98101.38;;;15.90;45.04
5609;BME280;2826;51.354;9.588;2023-05-01T08:05:29;98102.63;;;15.99;44.75
5609;BME280;2826;51.354;9.588;2023-05-01T08:07:56;98098.00;;;16.17;44.08
5609;BME280;2826;51.354;9.588;2023-05-01T08:10:22;98087.59;;;16.30;43.54
5609;BME280;2826;51.354;9.588;2023-05-01T08:12:50;98099.28;;;16.52;43.79
5609;BME280;2826;51.354;9.588;2023-05-01T08:15:17;98094.59;;;16.70;44.76
5609;BME280;2826;51.354;9.588;2023-05-01T08:17:45;98095.25;;;16.87;43.92
5609;BME280;2826;51.354;9.588;2023-05-01T08:20:12;98090.38;;;17.08;43.57
5609;BME280;2826;51.354;9.588;2023-05-01T08:22:39;98091.00;;;17.25;43.31
5609;BME280;2826;51.354;9.588;2023-05-01T08:25:06;98094.34;;;17.40;43.02
5609;BME280;2826;51.354;9.588;2023-05-01T08:27:32;98090.13;;;17.50;41.73
5609;BME280;2826;51.354;9.588;2023-05-01T08:29:59;98064.97;;;17.48;41.47
5609;BME280;2826;51.354;9.588;2023-05-01T08:32:26;98089.84;;;17.93;41.58
5609;BME280;2826;51.354;9.588;2023-05-01T08:34:54;98090.63;;;18.19;39.88
5609;BME280;2826;51.354;9.588;2023-05-01T08:37:21;98086.28;;;18.31;39.28
5609;BME280;2826;51.354;9.588;2023-05-01T08:39:48;98079.06;;;18.46;37.69
5609;BME280;2826;51.354;9.588;2023-05-01T08:42:14;98078.88;;;18.61;37.02
5609;BME280;2826;51.354;9.588;2023-05-01T08:44:42;98084.50;;;18.67;36.84
5609;BME280;2826;51.354;9.588;2023-05-01T08:47:10;98078.81;;;18.85;37.74
5609;BME280;2826;51.354;9.588;2023-05-01T08:49:39;98081.09;;;18.90;38.53
5609;BME280;2826;51.354;9.588;2023-05-01T08:52:10;98074.41;;;18.97;37.29
5609;BME280;2826;51.354;9.588;2023-05-01T08:54:38;98077.22;;;19.18;37.00
5609;BME280;2826;51.354;9.588;2023-05-01T08:57:05;98076.66;;;19.26;36.37
5609;BME280;2826;51.354;9.588;2023-05-01T08:59:35;98072.69;;;19.32;36.23
5609;BME280;2826;51.354;9.588;2023-05-01T09:02:02;98073.06;;;19.39;36.47
5609;BME280;2826;51.354;9.588;2023-05-01T09:04:31;98069.47;;;19.28;36.34
5609;BME280;2826;51.354;9.588;2023-05-01T09:07:00;98065.19;;;19.27;36.05
5609;BME280;2826;51.354;9.588;2023-05-01T09:09:29;98070.31;;;19.40;36.21
5609;BME280;2826;51.354;9.588;2023-05-01T09:12:02;98061.97;;;19.47;36.16
5609;BME280;2826;51.354;9.588;2023-05-01T09:14:34;98065.88;;;19.52;37.09
5609;BME280;2826;51.354;9.588;2023-05-01T09:17:00;98066.00;;;19.62;36.06
5609;BME280;2826;51.354;9.588;2023-05-01T09:19:27;98054.28;;;19.66;36.92
5609;BME280;2826;51.354;9.588;2023-05-01T09:21:54;98058.09;;;19.74;35.72
5609;BME280;2826;51.354;9.588;2023-05-01T09:24:23;98032.16;;;19.69;36.71
5609;BME280;2826;51.354;9.588;2023-05-01T09:26:51;98054.13;;;20.02;36.36
5609;BME280;2826;51.354;9.588;2023-05-01T09:29:38;98058.72;;;20.21;35.78
5609;BME280;2826;51.354;9.588;2023-05-01T09:32:12;98053.66;;;20.30;35.99
5609;BME280;2826;51.354;9.588;2023-05-01T09:34:39;98051.44;;;20.14;36.10
5609;BME280;2826;51.354;9.588;2023-05-01T09:37:06;98057.91;;;20.21;36.55
5609;BME280;2826;51.354;9.588;2023-05-01T09:39:32;98043.53;;;20.25;36.94
5609;BME280;2826;51.354;9.588;2023-05-01T09:42:00;98049.94;;;20.32;35.98
5609;BME280;2826;51.354;9.588;2023-05-01T09:44:27;98010.69;;;19.96;36.02
5609;BME280;2826;51.354;9.588;2023-05-01T09:46:54;98048.13;;;20.12;35.44
5609;BME280;2826;51.354;9.588;2023-05-01T09:49:43;98044.28;;;20.16;37.08
5609;BME280;2826;51.354;9.588;2023-05-01T09:52:10;98039.69;;;20.29;35.96
5609;BME280;2826;51.354;9.588;2023-05-01T09:54:37;98043.72;;;20.33;36.08
5609;BME280;2826;51.354;9.588;2023-05-01T09:57:05;98043.66;;;20.45;35.88
5609;BME280;2826;51.354;9.588;2023-05-01T09:59:32;98040.72;;;20.59;35.83
5609;BME280;2826;51.354;9.588;2023-05-01T10:01:59;98031.72;;;20.62;34.66
5609;BME280;2826;51.354;9.588;2023-05-01T10:04:30;98022.59;;;20.66;35.87
5609;BME280;2826;51.354;9.588;2023-05-01T10:06:57;98030.13;;;20.92;36.35
5609;BME280;2826;51.354;9.588;2023-05-01T10:09:28;98022.78;;;21.27;35.39
5609;BME280;2826;51.354;9.588;2023-05-01T10:11:55;98022.31;;;21.43;34.39
5609;BME280;2826;51.354;9.588;2023-05-01T10:14:24;98010.50;;;21.37;33.61
5609;BME280;2826;51.354;9.588;2023-05-01T10:16:52;98025.63;;;21.45;34.40
5609;BME280;2826;51.354;9.588;2023-05-01T10:19:20;98022.91;;;21.57;34.33
5609;BME280;2826;51.354;9.588;2023-05-01T10:21:48;98022.34;;;21.63;33.63
5609;BME280;2826;51.354;9.588;2023-05-01T10:24:14;98017.94;;;21.73;34.04
5609;BME280;2826;51.354;9.588;2023-05-01T10:26:41;98024.06;;;21.74;33.85
5609;BME280;2826;51.354;9.588;2023-05-01T10:29:08;98015.72;;;21.69;33.57
5609;BME280;2826;51.354;9.588;2023-05-01T10:31:36;98019.72;;;21.63;33.52
5609;BME280;2826;51.354;9.588;2023-05-01T10:34:03;98017.25;;;21.71;34.78
5609;BME280;2826;51.354;9.588;2023-05-01T10:36:33;98013.88;;;21.69;35.10
5609;BME280;2826;51.354;9.588;2023-05-01T10:39:03;98011.75;;;21.53;34.77
5609;BME280;2826;51.354;9.588;2023-05-01T10:42:02;98011.72;;;21.33;34.98
5609;BME280;2826;51.354;9.588;2023-05-01T10:44:29;98003.41;;;21.38;34.21
5609;BME280;2826;51.354;9.588;2023-05-01T10:46:57;98001.13;;;21.23;34.07
5609;BME280;2826;51.354;9.588;2023-05-01T10:49:24;98001.25;;;21.12;33.85
5609;BME280;2826;51.354;9.588;2023-05-01T10:51:58;97995.00;;;21.13;34.71
5609;BME280;2826;51.354;9.588;2023-05-01T10:54:26;97994.41;;;21.09;33.58
5609;BME280;2826;51.354;9.588;2023-05-01T10:56:54;97992.25;;;21.24;34.59
5609;BME280;2826;51.354;9.588;2023-05-01T10:59:23;97990.69;;;21.63;34.13
5609;BME280;2826;51.354;9.588;2023-05-01T11:01:51;97984.09;;;21.98;33.52
5609;BME280;2826;51.354;9.588;2023-05-01T11:04:48;97986.88;;;22.26;31.93
5609;BME280;2826;51.354;9.588;2023-05-01T11:07:17;97987.13;;;22.43;31.76
5609;BME280;2826;51.354;9.588;2023-05-01T11:09:44;97978.75;;;22.77;32.66
5609;BME280;2826;51.354;9.588;2023-05-01T11:12:13;97976.06;;;23.15;32.51
5609;BME280;2826;51.354;9.588;2023-05-01T11:15:02;97980.75;;;23.59;32.60
5609;BME280;2826;51.354;9.588;2023-05-01T11:17:44;97956.81;;;23.61;31.41
5609;BME280;2826;51.354;9.588;2023-05-01T11:20:12;97975.41;;;23.69;30.46
5609;BME280;2826;51.354;9.588;2023-05-01T11:22:59;97962.31;;;23.68;31.22
5609;BME280;2826;51.354;9.588;2023-05-01T11:25:27;97966.66;;;23.87;30.77
5609;BME280;2826;51.354;9.588;2023-05-01T11:27:56;97965.88;;;23.77;30.36
5609;BME280;2826;51.354;9.588;2023-05-01T11:30:23;97970.13;;;23.87;30.62
5609;BME280;2826;51.354;9.588;2023-05-01T11:32:50;97968.47;;;23.86;30.41
5609;BME280;2826;51.354;9.588;2023-05-01T11:35:19;97969.66;;;23.92;30.24
5609;BME280;2826;51.354;9.588;2023-05-01T11:37:47;97962.03;;;23.89;29.65
5609;BME280;2826;51.354;9.588;2023-05-01T11:40:19;97961.09;;;23.98;30.12
5609;BME280;2826;51.354;9.588;2023-05-01T11:42:46;97958.63;;;23.79;28.92
5609;BME280;2826;51.354;9.588;2023-05-01T11:45:13;97968.69;;;23.93;29.21
5609;BME280;2826;51.354;9.588;2023-05-01T11:47:40;97961.72;;;23.92;27.80
5609;BME280;2826;51.354;9.588;2023-05-01T11:50:08;97964.53;;;23.91;28.31
5609;BME280;2826;51.354;9.588;2023-05-01T11:52:44;97956.88;;;24.06;28.08
5609;BME280;2826;51.354;9.588;2023-05-01T11:55:13;97949.84;;;24.14;28.53
5609;BME280;2826;51.354;9.588;2023-05-01T11:57:47;97937.13;;;23.82;29.33
5609;BME280;2826;51.354;9.588;2023-05-01T12:00:14;97942.50;;;23.72;29.44
5609;BME280;2826;51.354;9.588;2023-05-01T12:02:54;97954.75;;;23.73;29.15
5609;BME280;2826;51.354;9.588;2023-05-01T12:05:22;97953.16;;;23.98;29.44
5609;BME280;2826;51.354;9.588;2023-05-01T12:07:50;97947.19;;;24.14;27.57
5609;BME280;2826;51.354;9.588;2023-05-01T12:10:17;97940.16;;;24.23;27.68
5609;BME280;2826;51.354;9.588;2023-05-01T12:12:44;97942.88;;;24.32;26.42
5609;BME280;2826;51.354;9.588;2023-05-01T12:15:11;97944.94;;;24.46;26.80
5609;BME280;2826;51.354;9.588;2023-05-01T12:17:38;97935.47;;;24.70;27.51
5609;BME280;2826;51.354;9.588;2023-05-01T12:20:07;97938.16;;;25.05;27.48
5609;BME280;2826;51.354;9.588;2023-05-01T12:22:34;97938.72;;;25.17;26.72
5609;BME280;2826;51.354;9.588;2023-05-01T12:25:02;97930.59;;;25.27;26.08
5609;BME280;2826;51.354;9.588;2023-05-01T12:27:30;97930.47;;;25.37;26.21
5609;BME280;2826;51.354;9.588;2023-05-01T12:29:57;97940.81;;;25.56;26.78
5609;BME280;2826;51.354;9.588;2023-05-01T12:32:30;97937.75;;;25.26;25.71
5609;BME280;2826;51.354;9.588;2023-05-01T12:34:58;97930.88;;;24.72;26.73
5609;BME280;2826;51.354;9.588;2023-05-01T12:37:29;97931.69;;;24.46;27.30
5609;BME280;2826;51.354;9.588;2023-05-01T12:39:57;97931.72;;;24.28;27.26
5609;BME280;2826;51.354;9.588;2023-05-01T12:42:25;97931.28;;;24.33;28.36
5609;BME280;2826;51.354;9.588;2023-05-01T12:44:58;97927.34;;;24.37;28.20
5609;BME280;2826;51.354;9.588;2023-05-01T12:47:25;97916.31;;;24.50;28.49
5609;BME280;2826;51.354;9.588;2023-05-01T12:50:01;97914.59;;;24.94;27.26
5609;BME280;2826;51.354;9.588;2023-05-01T12:52:27;97908.94;;;25.40;26.87
5609;BME280;2826;51.354;9.588;2023-05-01T12:55:01;97906.00;;;25.60;26.47
5609;BME280;2826;51.354;9.588;2023-05-01T12:57:29;97904.84;;;25.87;26.65
5609;BME280;2826;51.354;9.588;2023-05-01T13:00:02;97901.69;;;26.17;26.23
5609;BME280;2826;51.354;9.588;2023-05-01T13:02:31;97892.53;;;26.11;24.17
5609;BME280;2826;51.354;9.588;2023-05-01T13:05:05;97892.72;;;26.34;25.37
5609;BME280;2826;51.354;9.588;2023-05-01T13:07:32;97892.03;;;26.41;25.89
5609;BME280;2826;51.354;9.588;2023-05-01T13:09:59;97889.69;;;26.46;24.84
5609;BME280;2826;51.354;9.588;2023-05-01T13:12:27;97890.66;;;26.53;25.14
5609;BME280;2826;51.354;9.588;2023-05-01T13:14:55;97898.03;;;26.26;25.58
5609;BME280;2826;51.354;9.588;2023-05-01T13:17:24;97890.41;;;26.06;25.87
5609;BME280;2826;51.354;9.588;2023-05-01T13:19:52;97880.94;;;25.87;25.85
5609;BME280;2826;51.354;9.588;2023-05-01T13:22:28;97887.41;;;25.68;25.15
5609;BME280;2826;51.354;9.588;2023-05-01T13:24:55;97873.47;;;25.74;25.58
5609;BME280;2826;51.354;9.588;2023-05-01T13:27:22;97886.09;;;25.72;25.68
5609;BME280;2826;51.354;9.588;2023-05-01T13:29:51;97889.59;;;25.73;25.90
5609;BME280;2826;51.354;9.588;2023-05-01T13:32:21;97891.41;;;25.80;25.76
5609;BME280;2826;51.354;9.588;2023-05-01T13:34:47;97889.41;;;25.74;24.86
5609;BME280;2826;51.354;9.588;2023-05-01T13:37:16;97883.91;;;25.59;25.11
5609;BME280;2826;51.354;9.588;2023-05-01T13:39:44;97884.88;;;25.41;25.33
5609;BME280;2826;51.354;9.588;2023-05-01T13:42:13;97863.44;;;25.26;25.10